sensor_id;sensor_type;location;lat;lon;timestamp;P1;durP1;ratioP1;P2;durP2;ratioP2
17488;SDS011;8861;52.644;4.734;2023-04-06T00:00:09;31.03;;;18.33;;
17488;SDS011;8861;52.644;4.734;2023-04-06T00:02:37;29.30;;;17.60;;
17488;SDS011;8861;52.644;4.734;2023-04-06T00:05:04;30.67;;;17.33;;
17488;SDS011;8861;52.644;4.734;2023-04-06T00:07:33;31.10;;;17.53;;
17488;SDS011;8861;52.644;4.734;2023-04-06T00:10:00;31.20;;;18.00;;
17488;SDS011;8861;52.644;4.734;2023-04-06T00:12:27;31.53;;;17.50;;
17488;SDS011;8861;52.644;4.734;2023-04-06T00:14:55;30.13;;;17.03;;
17488;SDS011;8861;52.644;4.734;2023-04-06T00:17:22;31.97;;;17.83;;
17488;SDS011;8861;52.644;4.734;2023-04-06T00:19:49;28.03;;;16.57;;
17488;SDS011;8861;52.644;4.734;2023-04-06T00:22:16;28.37;;;16.50;;
17488;SDS011;8861;52.644;4.734;2023-04-06T00:24:43;28.83;;;16.27;;
17488;SDS011;8861;52.644;4.734;2023-04-06T00:27:10;28.30;;;16.07;;
17488;SDS011;8861;52.644;4.734;2023-04-06T00:29:37;31.50;;;16.93;;
17488;SDS011;8861;52.644;4.734;2023-04-06T00:32:06;31.27;;;17.10;;
17488;SDS011;8861;52.644;4.734;2023-04-06T00:34:33;29.63;;;17.73;;
17488;SDS011;8861;52.644;4.734;2023-04-06T00:37:00;24.70;;;15.27;;
17488;SDS011;8861;52.644;4.734;2023-04-06T00:39:27;30.03;;;16.57;;
17488;SDS011;8861;52.644;4.734;2023-04-06T00:41:54;30.33;;;17.27;;
17488;SDS011;8861;52.644;4.734;2023-04-06T00:44:22;28.97;;;16.80;;
17488;SDS011;8861;52.644;4.734;2023-04-06T00:46:50;28.10;;;16.97;;
17488;SDS011;8861;52.644;4.734;2023-04-06T00:49:18;27.27;;;16.17;;
17488;SDS011;8861;52.644;4.734;2023-04-06T00:51:48;31.47;;;17.93;;
17488;SDS011;8861;52.644;4.734;2023-04-06T00:54:15;29.37;;;17.70;;
17488;SDS011;8861;52.644;4.734;2023-04-06T00:56:42;32.40;;;19.10;;
17488;SDS011;8861;52.644;4.734;2023-04-06T00:59:10;35.20;;;19.87;;
17488;SDS011;8861;52.644;4.734;2023-04-06T01:01:37;33.20;;;19.73;;
17488;SDS011;8861;52.644;4.734;2023-04-06T01:04:04;34.63;;;20.57;;
17488;SDS011;8861;52.644;4.734;2023-04-06T01:06:32;35.50;;;20.20;;
17488;SDS011;8861;52.644;4.734;2023-04-06T01:08:59;34.70;;;20.40;;
17488;SDS011;8861;52.644;4.734;2023-04-06T01:11:26;39.43;;;19.80;;
17488;SDS011;8861;52.644;4.734;2023-04-06T01:13:53;33.50;;;19.97;;
17488;SDS011;8861;52.644;4.734;2023-04-06T01:16:21;32.70;;;20.07;;
17488;SDS011;8861;52.644;4.734;2023-04-06T01:18:47;35.70;;;20.27;;
17488;SDS011;8861;52.644;4.734;2023-04-06T01:21:15;32.87;;;19.10;;
17488;SDS011;8861;52.644;4.734;2023-04-06T01:23:44;30.10;;;17.87;;
17488;SDS011;8861;52.644;4.734;2023-04-06T01:26:11;31.50;;;17.70;;
17488;SDS011;8861;52.644;4.734;2023-04-06T01:28:38;30.63;;;17.80;;
17488;SDS011;8861;52.644;4.734;2023-04-06T01:31:06;28.63;;;17.07;;
17488;SDS011;8861;52.644;4.734;2023-04-06T01:33:34;25.63;;;15.90;;
17488;SDS011;8861;52.644;4.734;2023-04-06T01:36:01;27.83;;;16.83;;
17488;SDS011;8861;52.644;4.734;2023-04-06T01:38:28;25.10;;;15.87;;
17488;SDS011;8861;52.644;4.734;2023-04-06T01:40:56;30.07;;;16.83;;
17488;SDS011;8861;52.644;4.734;2023-04-06T01:43:23;24.90;;;16.23;;
17488;SDS011;8861;52.644;4.734;2023-04-06T01:45:50;26.07;;;16.37;;
17488;SDS011;8861;52.644;4.734;2023-04-06T01:48:17;27.27;;;16.00;;
17488;SDS011;8861;52.644;4.734;2023-04-06T01:50:44;27.43;;;16.80;;
17488;SDS011;8861;52.644;4.734;2023-04-06T01:53:11;26.07;;;15.53;;
17488;SDS011;8861;52.644;4.734;2023-04-06T01:55:39;24.60;;;15.40;;
17488;SDS011;8861;52.644;4.734;2023-04-06T01:58:09;27.27;;;16.73;;
17488;SDS011;8861;52.644;4.734;2023-04-06T02:00:36;25.07;;;15.90;;
17488;SDS011;8861;52.644;4.734;2023-04-06T02:03:04;24.43;;;14.93;;
17488;SDS011;8861;52.644;4.734;2023-04-06T02:05:31;24.63;;;14.70;;
17488;SDS011;8861;52.644;4.734;2023-04-06T02:08:02;23.33;;;14.27;;
17488;SDS011;8861;52.644;4.734;2023-04-06T02:10:30;25.37;;;14.93;;
17488;SDS011;8861;52.644;4.734;2023-04-06T02:12:57;23.43;;;14.63;;
17488;SDS011;8861;52.644;4.734;2023-04-06T02:15:25;23.23;;;14.83;;
17488;SDS011;8861;52.644;4.734;2023-04-06T02:17:53;24.30;;;14.50;;
17488;SDS011;8861;52.644;4.734;2023-04-06T02:20:20;21.20;;;13.57;;
17488;SDS011;8861;52.644;4.734;2023-04-06T02:22:46;23.17;;;12.90;;
17488;SDS011;8861;52.644;4.734;2023-04-06T02:25:13;22.67;;;13.80;;
17488;SDS011;8861;52.644;4.734;2023-04-06T02:27:41;24.77;;;14.73;;
17488;SDS011;8861;52.644;4.734;2023-04-06T02:30:08;27.20;;;15.87;;
17488;SDS011;8861;52.644;4.734;2023-04-06T02:32:37;24.90;;;15.00;;
17488;SDS011;8861;52.644;4.734;2023-04-06T02:35:04;24.37;;;14.97;;
17488;SDS011;8861;52.644;4.734;2023-04-06T02:37:31;24.63;;;14.33;;
17488;SDS011;8861;52.644;4.734;2023-04-06T02:39:58;23.90;;;14.27;;
17488;SDS011;8861;52.644;4.734;2023-04-06T02:42:25;24.80;;;14.53;;
17488;SDS011;8861;52.644;4.734;2023-04-06T02:44:52;23.13;;;13.40;;
17488;SDS011;8861;52.644;4.734;2023-04-06T02:47:19;21.57;;;13.13;;
17488;SDS011;8861;52.644;4.734;2023-04-06T02:49:47;21.73;;;13.17;;
17488;SDS011;8861;52.644;4.734;2023-04-06T02:52:14;20.03;;;12.23;;
17488;SDS011;8861;52.644;4.734;2023-04-06T02:54:42;24.53;;;14.70;;
17488;SDS011;8861;52.644;4.734;2023-04-06T02:57:09;24.67;;;14.37;;
17488;SDS011;8861;52.644;4.734;2023-04-06T02:59:36;21.77;;;13.23;;
17488;SDS011;8861;52.644;4.734;2023-04-06T03:02:03;24.10;;;14.37;;
17488;SDS011;8861;52.644;4.734;2023-04-06T03:04:30;23.93;;;15.00;;
17488;SDS011;8861;52.644;4.734;2023-04-06T03:06:58;21.63;;;13.93;;
17488;SDS011;8861;52.644;4.734;2023-04-06T03:09:25;22.83;;;14.27;;
17488;SDS011;8861;52.644;4.734;2023-04-06T03:11:53;22.23;;;13.23;;
17488;SDS011;8861;52.644;4.734;2023-04-06T03:14:20;23.03;;;13.67;;
17488;SDS011;8861;52.644;4.734;2023-04-06T03:16:47;23.07;;;13.70;;
17488;SDS011;8861;52.644;4.734;2023-04-06T03:19:14;23.17;;;13.23;;
17488;SDS011;8861;52.644;4.734;2023-04-06T03:21:41;22.50;;;13.93;;
17488;SDS011;8861;52.644;4.734;2023-04-06T03:24:09;24.17;;;14.83;;
17488;SDS011;8861;52.644;4.734;2023-04-06T03:26:37;23.20;;;14.30;;
17488;SDS011;8861;52.644;4.734;2023-04-06T03:29:04;22.00;;;13.20;;
17488;SDS011;8861;52.644;4.734;2023-04-06T03:31:31;22.53;;;14.37;;
17488;SDS011;8861;52.644;4.734;2023-04-06T03:33:58;22.63;;;14.43;;
17488;SDS011;8861;52.644;4.734;2023-04-06T03:36:25;23.53;;;14.50;;
17488;SDS011;8861;52.644;4.734;2023-04-06T03:38:52;23.90;;;14.40;;
17488;SDS011;8861;52.644;4.734;2023-04-06T03:41:21;22.63;;;13.73;;
17488;SDS011;8861;52.644;4.734;2023-04-06T03:43:48;24.73;;;15.27;;
17488;SDS011;8861;52.644;4.734;2023-04-06T03:46:15;22.40;;;13.80;;
17488;SDS011;8861;52.644;4.734;2023-04-06T03:48:41;22.40;;;13.67;;
17488;SDS011;8861;52.644;4.734;2023-04-06T03:51:08;20.50;;;13.87;;
17488;SDS011;8861;52.644;4.734;2023-04-06T03:53:35;23.17;;;13.73;;
17488;SDS011;8861;52.644;4.734;2023-04-06T03:56:03;22.23;;;13.20;;
17488;SDS011;8861;52.644;4.734;2023-04-06T03:58:32;21.83;;;13.90;;
17488;SDS011;8861;52.644;4.734;2023-04-06T04:00:59;21.07;;;13.73;;
17488;SDS011;8861;52.644;4.734;2023-04-06T04:03:25;21.77;;;13.63;;
17488;SDS011;8861;52.644;4.734;2023-04-06T04:05:53;19.93;;;13.17;;
17488;SDS011;8861;52.644;4.734;2023-04-06T04:08:20;22.07;;;13.60;;
17488;SDS011;8861;52.644;4.734;2023-04-06T04:10:47;21.50;;;14.00;;
17488;SDS011;8861;52.644;4.734;2023-04-06T04:13:14;21.97;;;13.37;;
17488;SDS011;8861;52.644;4.734;2023-04-06T04:15:42;22.13;;;13.57;;
17488;SDS011;8861;52.644;4.734;2023-04-06T04:18:09;21.20;;;13.67;;
17488;SDS011;8861;52.644;4.734;2023-04-06T04:20:36;22.40;;;14.00;;
17488;SDS011;8861;52.644;4.734;2023-04-06T04:23:03;21.67;;;13.40;;
17488;SDS011;8861;52.644;4.734;2023-04-06T04:25:30;21.23;;;13.13;;
17488;SDS011;8861;52.644;4.734;2023-04-06T04:27:57;21.10;;;13.10;;
17488;SDS011;8861;52.644;4.734;2023-04-06T04:30:24;21.40;;;13.40;;
17488;SDS011;8861;52.644;4.734;2023-04-06T04:32:52;20.40;;;12.67;;
17488;SDS011;8861;52.644;4.734;2023-04-06T04:35:19;18.03;;;12.00;;
17488;SDS011;8861;52.644;4.734;2023-04-06T04:37:46;20.63;;;12.70;;
17488;SDS011;8861;52.644;4.734;2023-04-06T04:40:13;21.13;;;12.47;;
17488;SDS011;8861;52.644;4.734;2023-04-06T04:42:40;18.70;;;12.40;;
17488;SDS011;8861;52.644;4.734;2023-04-06T04:45:08;20.87;;;12.97;;
17488;SDS011;8861;52.644;4.734;2023-04-06T04:47:35;21.60;;;13.50;;
17488;SDS011;8861;52.644;4.734;2023-04-06T04:50:04;19.97;;;13.07;;
17488;SDS011;8861;52.644;4.734;2023-04-06T04:52:31;20.90;;;13.37;;
17488;SDS011;8861;52.644;4.734;2023-04-06T04:54:58;20.03;;;12.93;;
17488;SDS011;8861;52.644;4.734;2023-04-06T04:57:25;22.30;;;13.37;;
17488;SDS011;8861;52.644;4.734;2023-04-06T04:59:52;20.00;;;13.30;;
17488;SDS011;8861;52.644;4.734;2023-04-06T05:02:19;22.13;;;13.50;;
17488;SDS011;8861;52.644;4.734;2023-04-06T05:04:46;22.63;;;14.00;;
17488;SDS011;8861;52.644;4.734;2023-04-06T05:07:14;24.87;;;14.73;;
17488;SDS011;8861;52.644;4.734;2023-04-06T05:09:43;23.77;;;14.30;;
17488;SDS011;8861;52.644;4.734;2023-04-06T05:12:10;20.13;;;13.30;;
17488;SDS011;8861;52.644;4.734;2023-04-06T05:14:37;21.37;;;14.07;;
17488;SDS011;8861;52.644;4.734;2023-04-06T05:17:04;22.57;;;14.00;;
17488;SDS011;8861;52.644;4.734;2023-04-06T05:19:31;22.80;;;14.83;;
17488;SDS011;8861;52.644;4.734;2023-04-06T05:21:58;24.23;;;15.37;;
17488;SDS011;8861;52.644;4.734;2023-04-06T05:24:26;24.93;;;15.13;;
17488;SDS011;8861;52.644;4.734;2023-04-06T05:26:54;23.83;;;15.10;;
17488;SDS011;8861;52.644;4.734;2023-04-06T05:29:21;27.53;;;17.00;;
17488;SDS011;8861;52.644;4.734;2023-04-06T05:31:48;27.67;;;16.87;;
17488;SDS011;8861;52.644;4.734;2023-04-06T05:34:15;26.67;;;16.37;;
17488;SDS011;8861;52.644;4.734;2023-04-06T05:36:42;24.63;;;15.97;;
17488;SDS011;8861;52.644;4.734;2023-04-06T05:39:08;25.60;;;16.60;;
17488;SDS011;8861;52.644;4.734;2023-04-06T05:41:38;27.27;;;16.47;;
17488;SDS011;8861;52.644;4.734;2023-04-06T05:44:05;25.57;;;16.10;;
17488;SDS011;8861;52.644;4.734;2023-04-06T05:46:32;24.27;;;15.57;;
17488;SDS011;8861;52.644;4.734;2023-04-06T05:48:59;27.53;;;16.93;;
17488;SDS011;8861;52.644;4.734;2023-04-06T05:51:26;27.67;;;15.90;;
17488;SDS011;8861;52.644;4.734;2023-04-06T05:53:53;24.30;;;15.93;;
17488;SDS011;8861;52.644;4.734;2023-04-06T05:56:20;24.77;;;15.83;;
17488;SDS011;8861;52.644;4.734;2023-04-06T05:58:48;26.23;;;15.80;;
17488;SDS011;8861;52.644;4.734;2023-04-06T06:01:15;23.17;;;14.73;;
17488;SDS011;8861;52.644;4.734;2023-04-06T06:03:42;24.90;;;15.27;;
17488;SDS011;8861;52.644;4.734;2023-04-06T06:06:09;31.93;;;17.10;;
17488;SDS011;8861;52.644;4.734;2023-04-06T06:08:36;31.13;;;17.77;;
17488;SDS011;8861;52.644;4.734;2023-04-06T06:11:03;27.47;;;17.33;;
17488;SDS011;8861;52.644;4.734;2023-04-06T06:13:30;28.83;;;18.20;;
17488;SDS011;8861;52.644;4.734;2023-04-06T06:15:58;33.13;;;19.20;;
17488;SDS011;8861;52.644;4.734;2023-04-06T06:18:25;32.20;;;19.17;;
17488;SDS011;8861;52.644;4.734;2023-04-06T06:20:52;36.10;;;19.40;;
17488;SDS011;8861;52.644;4.734;2023-04-06T06:23:19;37.73;;;21.23;;
17488;SDS011;8861;52.644;4.734;2023-04-06T06:25:46;37.57;;;21.00;;
17488;SDS011;8861;52.644;4.734;2023-04-06T06:28:13;40.33;;;21.40;;
17488;SDS011;8861;52.644;4.734;2023-04-06T06:30:40;41.10;;;23.03;;
17488;SDS011;8861;52.644;4.734;2023-04-06T06:33:08;36.60;;;21.07;;
17488;SDS011;8861;52.644;4.734;2023-04-06T06:35:35;36.87;;;21.97;;
17488;SDS011;8861;52.644;4.734;2023-04-06T06:38:02;40.77;;;22.83;;
17488;SDS011;8861;52.644;4.734;2023-04-06T06:40:29;40.43;;;21.50;;
17488;SDS011;8861;52.644;4.734;2023-04-06T06:42:55;42.80;;;24.03;;
17488;SDS011;8861;52.644;4.734;2023-04-06T06:45:22;43.20;;;22.73;;
17488;SDS011;8861;52.644;4.734;2023-04-06T06:47:50;39.83;;;22.70;;
17488;SDS011;8861;52.644;4.734;2023-04-06T06:50:18;43.07;;;23.90;;
17488;SDS011;8861;52.644;4.734;2023-04-06T06:52:45;39.87;;;22.70;;
17488;SDS011;8861;52.644;4.734;2023-04-06T06:55:12;41.80;;;23.03;;
17488;SDS011;8861;52.644;4.734;2023-04-06T06:57:40;38.97;;;22.73;;
17488;SDS011;8861;52.644;4.734;2023-04-06T07:00:08;43.43;;;24.53;;
17488;SDS011;8861;52.644;4.734;2023-04-06T07:02:36;38.67;;;22.90;;
17488;SDS011;8861;52.644;4.734;2023-04-06T07:05:03;43.20;;;24.10;;
17488;SDS011;8861;52.644;4.734;2023-04-06T07:07:32;41.70;;;24.63;;
17488;SDS011;8861;52.644;4.734;2023-04-06T07:09:59;42.53;;;24.20;;
17488;SDS011;8861;52.644;4.734;2023-04-06T07:12:26;44.13;;;25.03;;
17488;SDS011;8861;52.644;4.734;2023-04-06T07:14:53;46.47;;;24.63;;
17488;SDS011;8861;52.644;4.734;2023-04-06T07:17:20;45.47;;;25.17;;
17488;SDS011;8861;52.644;4.734;2023-04-06T07:19:48;43.73;;;24.80;;
17488;SDS011;8861;52.644;4.734;2023-04-06T07:22:14;45.77;;;26.60;;
17488;SDS011;8861;52.644;4.734;2023-04-06T07:24:43;45.67;;;26.40;;
17488;SDS011;8861;52.644;4.734;2023-04-06T07:27:10;42.93;;;25.27;;
17488;SDS011;8861;52.644;4.734;2023-04-06T07:29:37;46.30;;;26.63;;
17488;SDS011;8861;52.644;4.734;2023-04-06T07:32:04;49.23;;;27.97;;
17488;SDS011;8861;52.644;4.734;2023-04-06T07:34:31;44.67;;;26.80;;
17488;SDS011;8861;52.644;4.734;2023-04-06T07:36:58;47.50;;;26.17;;
17488;SDS011;8861;52.644;4.734;2023-04-06T07:39:25;48.50;;;28.00;;
17488;SDS011;8861;52.644;4.734;2023-04-06T07:41:54;44.87;;;26.67;;
17488;SDS011;8861;52.644;4.734;2023-04-06T07:44:21;46.60;;;27.47;;
17488;SDS011;8861;52.644;4.734;2023-04-06T07:46:48;49.60;;;28.37;;
17488;SDS011;8861;52.644;4.734;2023-04-06T07:49:15;52.77;;;28.57;;
17488;SDS011;8861;52.644;4.734;2023-04-06T07:51:42;49.23;;;27.37;;
17488;SDS011;8861;52.644;4.734;2023-04-06T07:54:09;51.03;;;29.70;;
17488;SDS011;8861;52.644;4.734;2023-04-06T07:56:35;52.17;;;29.23;;
17488;SDS011;8861;52.644;4.734;2023-04-06T07:59:04;50.33;;;28.37;;
17488;SDS011;8861;52.644;4.734;2023-04-06T08:01:31;54.00;;;30.43;;
17488;SDS011;8861;52.644;4.734;2023-04-06T08:03:58;49.60;;;29.07;;
17488;SDS011;8861;52.644;4.734;2023-04-06T08:06:27;49.90;;;29.43;;
17488;SDS011;8861;52.644;4.734;2023-04-06T08:08:54;56.20;;;31.37;;
17488;SDS011;8861;52.644;4.734;2023-04-06T08:11:21;53.53;;;30.87;;
17488;SDS011;8861;52.644;4.734;2023-04-06T08:13:47;51.93;;;31.20;;
17488;SDS011;8861;52.644;4.734;2023-04-06T08:16:16;54.47;;;31.27;;
17488;SDS011;8861;52.644;4.734;2023-04-06T08:18:43;56.07;;;32.33;;
17488;SDS011;8861;52.644;4.734;2023-04-06T08:21:10;51.37;;;30.03;;
17488;SDS011;8861;52.644;4.734;2023-04-06T08:23:37;58.30;;;32.47;;
17488;SDS011;8861;52.644;4.734;2023-04-06T08:26:04;53.53;;;30.50;;
17488;SDS011;8861;52.644;4.734;2023-04-06T08:28:31;46.10;;;28.20;;
17488;SDS011;8861;52.644;4.734;2023-04-06T08:31:02;52.00;;;30.90;;
17488;SDS011;8861;52.644;4.734;2023-04-06T08:33:31;53.33;;;30.97;;
17488;SDS011;8861;52.644;4.734;2023-04-06T08:36:06;58.87;;;33.70;;
17488;SDS011;8861;52.644;4.734;2023-04-06T08:38:33;60.13;;;34.23;;
17488;SDS011;8861;52.644;4.734;2023-04-06T08:41:05;56.23;;;32.90;;
17488;SDS011;8861;52.644;4.734;2023-04-06T08:43:33;48.17;;;29.37;;
17488;SDS011;8861;52.644;4.734;2023-04-06T08:46:04;50.40;;;29.60;;
17488;SDS011;8861;52.644;4.734;2023-04-06T08:48:33;51.83;;;30.43;;
17488;SDS011;8861;52.644;4.734;2023-04-06T08:51:00;55.43;;;32.40;;
17488;SDS011;8861;52.644;4.734;2023-04-06T08:53:28;54.10;;;31.90;;
17488;SDS011;8861;52.644;4.734;2023-04-06T08:55:55;53.10;;;30.43;;
17488;SDS011;8861;52.644;4.734;2023-04-06T08:58:25;59.10;;;31.57;;
17488;SDS011;8861;52.644;4.734;2023-04-06T09:00:54;53.97;;;30.67;;
17488;SDS011;8861;52.644;4.734;2023-04-06T09:03:21;51.33;;;29.97;;
17488;SDS011;8861;52.644;4.734;2023-04-06T09:05:51;50.37;;;28.97;;
17488;SDS011;8861;52.644;4.734;2023-04-06T09:08:18;49.73;;;28.97;;
17488;SDS011;8861;52.644;4.734;2023-04-06T09:10:45;51.03;;;29.63;;
17488;SDS011;8861;52.644;4.734;2023-04-06T09:13:13;51.73;;;30.30;;
17488;SDS011;8861;52.644;4.734;2023-04-06T09:15:40;48.13;;;28.80;;
17488;SDS011;8861;52.644;4.734;2023-04-06T09:18:07;52.10;;;29.43;;
17488;SDS011;8861;52.644;4.734;2023-04-06T09:20:34;54.20;;;30.17;;
17488;SDS011;8861;52.644;4.734;2023-04-06T09:23:03;51.07;;;29.67;;
17488;SDS011;8861;52.644;4.734;2023-04-06T09:25:30;50.87;;;29.97;;
17488;SDS011;8861;52.644;4.734;2023-04-06T09:28:00;50.47;;;29.63;;
17488;SDS011;8861;52.644;4.734;2023-04-06T09:30:29;55.60;;;30.97;;
17488;SDS011;8861;52.644;4.734;2023-04-06T09:32:57;52.67;;;30.73;;
17488;SDS011;8861;52.644;4.734;2023-04-06T09:35:24;53.63;;;30.07;;
17488;SDS011;8861;52.644;4.734;2023-04-06T09:37:52;50.90;;;29.90;;
17488;SDS011;8861;52.644;4.734;2023-04-06T09:40:21;50.07;;;28.87;;
17488;SDS011;8861;52.644;4.734;2023-04-06T09:42:49;48.33;;;28.17;;
17488;SDS011;8861;52.644;4.734;2023-04-06T09:45:18;47.03;;;28.60;;
17488;SDS011;8861;52.644;4.734;2023-04-06T09:47:46;50.10;;;29.47;;
17488;SDS011;8861;52.644;4.734;2023-04-06T09:50:13;48.87;;;28.77;;
17488;SDS011;8861;52.644;4.734;2023-04-06T09:52:42;50.67;;;29.03;;
17488;SDS011;8861;52.644;4.734;2023-04-06T09:55:28;48.03;;;28.53;;
17488;SDS011;8861;52.644;4.734;2023-04-06T09:58:10;51.83;;;29.37;;
17488;SDS011;8861;52.644;4.734;2023-04-06T10:00:44;47.97;;;29.23;;
17488;SDS011;8861;52.644;4.734;2023-04-06T10:03:20;46.73;;;28.63;;
17488;SDS011;8861;52.644;4.734;2023-04-06T10:05:54;46.93;;;28.20;;
17488;SDS011;8861;52.644;4.734;2023-04-06T10:08:24;47.00;;;26.40;;
17488;SDS011;8861;52.644;4.734;2023-04-06T10:10:55;43.47;;;26.60;;
17488;SDS011;8861;52.644;4.734;2023-04-06T10:13:23;46.43;;;28.73;;
17488;SDS011;8861;52.644;4.734;2023-04-06T10:15:50;47.13;;;28.80;;
17488;SDS011;8861;52.644;4.734;2023-04-06T10:18:18;47.60;;;28.23;;
17488;SDS011;8861;52.644;4.734;2023-04-06T10:20:47;47.07;;;27.20;;
17488;SDS011;8861;52.644;4.734;2023-04-06T10:23:19;48.07;;;28.57;;
17488;SDS011;8861;52.644;4.734;2023-04-06T10:25:53;57.20;;;32.17;;
17488;SDS011;8861;52.644;4.734;2023-04-06T10:28:23;50.90;;;31.37;;
17488;SDS011;8861;52.644;4.734;2023-04-06T10:30:56;52.57;;;32.80;;
17488;SDS011;8861;52.644;4.734;2023-04-06T10:33:24;52.40;;;31.27;;
17488;SDS011;8861;52.644;4.734;2023-04-06T10:35:51;55.03;;;31.70;;
17488;SDS011;8861;52.644;4.734;2023-04-06T10:38:19;47.80;;;29.93;;
17488;SDS011;8861;52.644;4.734;2023-04-06T10:40:47;53.23;;;29.53;;
17488;SDS011;8861;52.644;4.734;2023-04-06T10:43:19;46.47;;;29.57;;
17488;SDS011;8861;52.644;4.734;2023-04-06T10:45:54;44.50;;;27.80;;
17488;SDS011;8861;52.644;4.734;2023-04-06T10:48:22;49.93;;;27.70;;
17488;SDS011;8861;52.644;4.734;2023-04-06T10:50:50;44.03;;;26.93;;
17488;SDS011;8861;52.644;4.734;2023-04-06T10:53:21;49.30;;;28.20;;
17488;SDS011;8861;52.644;4.734;2023-04-06T10:55:49;46.27;;;27.37;;
17488;SDS011;8861;52.644;4.734;2023-04-06T10:58:16;47.13;;;27.33;;
17488;SDS011;8861;52.644;4.734;2023-04-06T11:00:45;41.50;;;24.57;;
17488;SDS011;8861;52.644;4.734;2023-04-06T11:03:13;41.03;;;23.90;;
17488;SDS011;8861;52.644;4.734;2023-04-06T11:05:43;41.37;;;23.67;;
17488;SDS011;8861;52.644;4.734;2023-04-06T11:08:21;41.87;;;25.23;;
17488;SDS011;8861;52.644;4.734;2023-04-06T11:10:48;45.83;;;26.40;;
17488;SDS011;8861;52.644;4.734;2023-04-06T11:13:15;47.87;;;28.53;;
17488;SDS011;8861;52.644;4.734;2023-04-06T11:15:44;47.00;;;29.07;;
17488;SDS011;8861;52.644;4.734;2023-04-06T11:18:11;44.57;;;27.47;;
17488;SDS011;8861;52.644;4.734;2023-04-06T11:20:37;43.10;;;26.13;;
17488;SDS011;8861;52.644;4.734;2023-04-06T11:23:04;43.63;;;25.93;;
17488;SDS011;8861;52.644;4.734;2023-04-06T11:25:31;38.60;;;23.83;;
17488;SDS011;8861;52.644;4.734;2023-04-06T11:27:58;34.57;;;20.90;;
17488;SDS011;8861;52.644;4.734;2023-04-06T11:30:25;34.40;;;20.97;;
17488;SDS011;8861;52.644;4.734;2023-04-06T11:32:59;36.40;;;21.30;;
17488;SDS011;8861;52.644;4.734;2023-04-06T11:35:27;30.33;;;18.43;;
17488;SDS011;8861;52.644;4.734;2023-04-06T11:37:59;27.07;;;16.27;;
17488;SDS011;8861;52.644;4.734;2023-04-06T11:40:29;24.87;;;16.10;;
17488;SDS011;8861;52.644;4.734;2023-04-06T11:42:58;22.73;;;16.00;;
17488;SDS011;8861;52.644;4.734;2023-04-06T11:45:25;22.17;;;15.10;;
17488;SDS011;8861;52.644;4.734;2023-04-06T11:47:57;32.70;;;19.67;;
17488;SDS011;8861;52.644;4.734;2023-04-06T11:50:31;30.70;;;19.57;;
17488;SDS011;8861;52.644;4.734;2023-04-06T11:52:59;29.10;;;18.70;;
17488;SDS011;8861;52.644;4.734;2023-04-06T11:55:26;33.17;;;21.33;;
17488;SDS011;8861;52.644;4.734;2023-04-06T11:57:53;35.63;;;22.20;;
17488;SDS011;8861;52.644;4.734;2023-04-06T12:00:21;38.40;;;23.07;;
17488;SDS011;8861;52.644;4.734;2023-04-06T12:02:48;33.63;;;20.17;;
17488;SDS011;8861;52.644;4.734;2023-04-06T12:05:17;30.00;;;19.43;;
17488;SDS011;8861;52.644;4.734;2023-04-06T12:07:44;31.10;;;19.33;;
17488;SDS011;8861;52.644;4.734;2023-04-06T12:10:11;31.23;;;20.03;;
17488;SDS011;8861;52.644;4.734;2023-04-06T12:12:38;28.37;;;17.93;;
17488;SDS011;8861;52.644;4.734;2023-04-06T12:15:06;26.50;;;17.70;;
17488;SDS011;8861;52.644;4.734;2023-04-06T12:17:34;25.00;;;17.23;;
17488;SDS011;8861;52.644;4.734;2023-04-06T12:20:02;24.03;;;16.53;;
17488;SDS011;8861;52.644;4.734;2023-04-06T12:22:30;22.93;;;16.10;;
17488;SDS011;8861;52.644;4.734;2023-04-06T12:24:57;22.20;;;15.70;;
17488;SDS011;8861;52.644;4.734;2023-04-06T12:27:24;24.67;;;16.33;;
17488;SDS011;8861;52.644;4.734;2023-04-06T12:29:51;23.47;;;16.40;;
17488;SDS011;8861;52.644;4.734;2023-04-06T12:32:20;21.43;;;15.37;;
17488;SDS011;8861;52.644;4.734;2023-04-06T12:34:47;23.87;;;16.27;;
17488;SDS011;8861;52.644;4.734;2023-04-06T12:37:14;20.43;;;15.00;;
17488;SDS011;8861;52.644;4.734;2023-04-06T12:39:43;19.83;;;13.97;;
17488;SDS011;8861;52.644;4.734;2023-04-06T12:42:10;24.93;;;15.77;;
17488;SDS011;8861;52.644;4.734;2023-04-06T12:44:37;20.83;;;14.77;;
17488;SDS011;8861;52.644;4.734;2023-04-06T12:47:04;21.83;;;14.57;;
17488;SDS011;8861;52.644;4.734;2023-04-06T12:49:32;20.13;;;14.57;;
17488;SDS011;8861;52.644;4.734;2023-04-06T12:51:59;19.37;;;14.57;;
17488;SDS011;8861;52.644;4.734;2023-04-06T12:54:27;19.23;;;14.20;;
17488;SDS011;8861;52.644;4.734;2023-04-06T12:56:55;19.20;;;13.63;;
17488;SDS011;8861;52.644;4.734;2023-04-06T12:59:22;21.37;;;14.57;;
17488;SDS011;8861;52.644;4.734;2023-04-06T13:01:50;20.80;;;14.27;;
17488;SDS011;8861;52.644;4.734;2023-04-06T13:04:17;20.73;;;14.93;;
17488;SDS011;8861;52.644;4.734;2023-04-06T13:06:44;21.27;;;14.70;;
17488;SDS011;8861;52.644;4.734;2023-04-06T13:09:11;20.60;;;14.97;;
17488;SDS011;8861;52.644;4.734;2023-04-06T13:11:38;20.20;;;14.87;;
17488;SDS011;8861;52.644;4.734;2023-04-06T13:14:07;19.53;;;14.27;;
17488;SDS011;8861;52.644;4.734;2023-04-06T13:16:35;20.07;;;13.97;;
17488;SDS011;8861;52.644;4.734;2023-04-06T13:19:02;22.20;;;15.73;;
17488;SDS011;8861;52.644;4.734;2023-04-06T13:21:29;21.13;;;15.20;;
17488;SDS011;8861;52.644;4.734;2023-04-06T13:23:56;22.93;;;14.80;;
17488;SDS011;8861;52.644;4.734;2023-04-06T13:26:23;19.97;;;14.40;;
17488;SDS011;8861;52.644;4.734;2023-04-06T13:28:50;21.20;;;14.87;;
17488;SDS011;8861;52.644;4.734;2023-04-06T13:31:19;22.43;;;15.80;;
17488;SDS011;8861;52.644;4.734;2023-04-06T13:33:46;23.37;;;15.50;;
17488;SDS011;8861;52.644;4.734;2023-04-06T13:36:13;22.67;;;16.13;;
17488;SDS011;8861;52.644;4.734;2023-04-06T13:38:41;19.97;;;14.63;;
17488;SDS011;8861;52.644;4.734;2023-04-06T13:41:08;23.17;;;15.57;;
17488;SDS011;8861;52.644;4.734;2023-04-06T13:43:35;22.53;;;15.57;;
17488;SDS011;8861;52.644;4.734;2023-04-06T13:46:02;19.67;;;13.93;;
17488;SDS011;8861;52.644;4.734;2023-04-06T13:48:30;23.07;;;14.77;;
17488;SDS011;8861;52.644;4.734;2023-04-06T13:50:57;20.93;;;14.23;;
17488;SDS011;8861;52.644;4.734;2023-04-06T13:53:33;20.43;;;14.97;;
17488;SDS011;8861;52.644;4.734;2023-04-06T13:56:00;22.57;;;16.10;;
17488;SDS011;8861;52.644;4.734;2023-04-06T13:58:27;22.53;;;15.50;;
17488;SDS011;8861;52.644;4.734;2023-04-06T14:00:54;21.93;;;14.77;;
17488;SDS011;8861;52.644;4.734;2023-04-06T14:03:21;23.50;;;16.37;;
17488;SDS011;8861;52.644;4.734;2023-04-06T14:05:50;21.93;;;15.43;;
17488;SDS011;8861;52.644;4.734;2023-04-06T14:08:17;21.47;;;15.60;;
17488;SDS011;8861;52.644;4.734;2023-04-06T14:10:44;24.53;;;16.83;;
17488;SDS011;8861;52.644;4.734;2023-04-06T14:13:11;22.83;;;15.97;;
17488;SDS011;8861;52.644;4.734;2023-04-06T14:15:37;23.60;;;15.97;;
17488;SDS011;8861;52.644;4.734;2023-04-06T14:18:04;25.33;;;16.90;;
17488;SDS011;8861;52.644;4.734;2023-04-06T14:20:31;21.43;;;14.60;;
17488;SDS011;8861;52.644;4.734;2023-04-06T14:23:00;23.27;;;16.00;;
17488;SDS011;8861;52.644;4.734;2023-04-06T14:25:27;22.90;;;15.90;;
17488;SDS011;8861;52.644;4.734;2023-04-06T14:27:56;22.70;;;15.67;;
17488;SDS011;8861;52.644;4.734;2023-04-06T14:30:23;25.30;;;18.00;;
17488;SDS011;8861;52.644;4.734;2023-04-06T14:32:50;24.67;;;17.27;;
17488;SDS011;8861;52.644;4.734;2023-04-06T14:35:17;24.57;;;16.77;;